createdAt,value
2023-05-06T07:50:13.519Z,38.44
2023-05-06T07:52:43.546Z,38.40
2023-05-06T07:55:12.979Z,37.51
2023-05-06T07:57:43.150Z,37.41
2023-05-06T08:00:13.310Z,37.90
2023-05-06T08:02:50.228Z,36.55
2023-05-06T08:05:19.885Z,36.07
2023-05-06T08:07:51.048Z,36.47
2023-05-06T08:10:20.422Z,37.37
2023-05-06T08:12:49.699Z,38.65
2023-05-06T08:15:20.191Z,39.01
2023-05-06T08:17:50.188Z,38.03
2023-05-06T08:20:22.819Z,37.72
2023-05-06T08:22:52.649Z,38.62
2023-05-06T08:25:22.424Z,38.27
2023-05-06T08:27:52.422Z,39.75
2023-05-06T08:30:21.763Z,39.61
2023-05-06T08:32:50.336Z,38.98
2023-05-06T08:35:18.883Z,39.89
2023-05-06T08:37:47.361Z,40.50
2023-05-06T08:40:20.269Z,40.26
2023-05-06T08:42:50.988Z,39.73
2023-05-06T08:45:23.286Z,38.29
2023-05-06T08:47:52.807Z,38.67
2023-05-06T08:50:21.285Z,39.04
2023-05-06T08:52:51.288Z,39.25
2023-05-06T08:55:19.831Z,39.09
2023-05-06T08:57:50.372Z,39.28
2023-05-06T09:00:18.941Z,39.36
2023-05-06T09:02:47.526Z,38.49
2023-05-06T09:05:18.120Z,38.26
2023-05-06T09:07:46.451Z,38.66
2023-05-06T09:10:15.766Z,38.37
2023-05-06T09:12:43.774Z,38.55
2023-05-06T09:15:12.530Z,38.54
2023-05-06T09:17:41.231Z,37.86
2023-05-06T09:20:13.060Z,38.24
2023-05-06T09:22:41.541Z,39.41
2023-05-06T09:25:12.460Z,38.70
2023-05-06T09:27:41.145Z,36.81
2023-05-06T09:30:13.399Z,36.64
2023-05-06T09:33:38.192Z,37.73
2023-05-06T09:36:07.506Z,37.55
2023-05-06T09:38:35.846Z,36.80
2023-05-06T09:41:04.979Z,36.85
2023-05-06T09:43:35.431Z,36.57
2023-05-06T09:46:09.283Z,36.28
2023-05-06T09:48:39.235Z,36.30
2023-05-06T09:51:08.038Z,36.50
2023-05-06T09:53:39.675Z,36.08
2023-05-06T09:56:08.972Z,36.05
2023-05-06T09:58:44.554Z,36.37
2023-05-06T10:01:19.288Z,35.54
2023-05-06T10:04:11.332Z,35.56
2023-05-06T10:06:44.056Z,36.47
2023-05-06T10:09:13.241Z,36.95
2023-05-06T10:11:41.893Z,36.78
2023-05-06T10:14:13.494Z,36.37
2023-05-06T10:16:42.522Z,36.12
2023-05-06T10:19:12.296Z,36.33
2023-05-06T10:21:46.823Z,36.03
2023-05-06T10:24:18.066Z,36.25
2023-05-06T10:26:49.098Z,37.50
2023-05-06T10:29:19.335Z,35.90
2023-05-06T10:31:56.012Z,36.27
2023-05-06T10:34:29.083Z,35.81
2023-05-06T10:37:02.087Z,35.57
2023-05-06T10:39:30.646Z,36.14
2023-05-06T10:41:58.920Z,35.96
2023-05-06T10:44:46.208Z,35.28
2023-05-06T10:47:14.621Z,35.89
2023-05-06T10:50:21.355Z,35.36
2023-05-06T10:52:57.271Z,35.95
2023-05-06T10:55:28.149Z,36.65
2023-05-06T10:58:19.914Z,35.94
2023-05-06T11:01:02.480Z,36.04
2023-05-06T11:03:34.235Z,35.52
2023-05-06T11:06:03.170Z,35.16
2023-05-06T11:08:31.384Z,35.03
2023-05-06T11:11:00.809Z,34.50
2023-05-06T11:13:35.381Z,34.83
2023-05-06T11:16:03.656Z,34.48
2023-05-06T11:18:34.401Z,34.83
2023-05-06T11:21:07.632Z,34.48
2023-05-06T11:23:53.252Z,34.60
2023-05-06T11:26:24.641Z,35.71
2023-05-06T11:28:53.395Z,36.22
2023-05-06T11:31:23.338Z,35.37
2023-05-06T11:33:55.407Z,35.98
2023-05-06T11:36:53.857Z,36.35
2023-05-06T11:39:22.434Z,35.68
2023-05-06T11:41:54.814Z,36.41
2023-05-06T11:44:29.436Z,36.68
2023-05-06T11:47:06.838Z,37.16
2023-05-06T11:49:43.534Z,36.67
2023-05-06T11:52:14.159Z,36.27
2023-05-06T11:54:43.125Z,37.38
2023-05-06T11:57:11.916Z,37.73
2023-05-06T11:59:41.348Z,38.10
2023-05-06T12:07:44.424Z,38.99
2023-05-06T12:10:14.572Z,37.89
2023-05-06T12:12:44.271Z,37.89
2023-05-06T12:15:13.860Z,37.96
2023-05-06T12:17:42.157Z,37.94
2023-05-06T12:20:12.681Z,38.65
2023-05-06T12:22:45.423Z,38.87
2023-05-06T12:25:15.702Z,39.46
2023-05-06T12:27:45.502Z,39.72
2023-05-06T12:30:14.577Z,39.86
2023-05-06T12:33:11.420Z,39.79
2023-05-06T12:35:43.114Z,39.46
2023-05-06T12:38:36.985Z,39.74
2023-05-06T12:41:10.567Z,39.86
2023-05-06T12:43:39.942Z,39.68
2023-05-06T12:46:09.303Z,39.45
2023-05-06T12:48:39.390Z,39.38
2023-05-06T12:51:41.859Z,39.34
2023-05-06T12:54:30.876Z,38.92
2023-05-06T12:56:59.006Z,39.01
2023-05-06T12:59:28.117Z,39.01
2023-05-06T13:01:56.455Z,39.70
2023-05-06T13:11:56.561Z,39.01
2023-05-06T13:14:25.000Z,38.33
2023-05-06T13:16:53.763Z,37.82
2023-05-06T13:19:32.440Z,37.97
2023-05-06T13:27:09.741Z,37.38
2023-05-06T13:29:40.558Z,36.82
2023-05-06T13:32:09.116Z,36.55
2023-05-06T13:34:37.888Z,36.48
2023-05-06T13:37:06.614Z,36.72
2023-05-06T13:39:35.403Z,36.84
2023-05-06T13:42:06.092Z,37.42
2023-05-06T13:44:37.882Z,37.12
2023-05-06T13:47:06.686Z,36.88
2023-05-06T13:49:35.832Z,36.56
2023-05-06T13:52:05.714Z,36.66
2023-05-06T13:54:36.326Z,36.37
2023-05-06T13:57:04.898Z,36.35
2023-05-06T13:59:33.280Z,35.88
2023-05-06T14:02:01.840Z,35.72
2023-05-06T14:04:30.769Z,35.67
2023-05-06T14:06:59.342Z,35.75
2023-05-06T14:09:27.294Z,36.11
2023-05-06T14:11:56.185Z,36.13
2023-05-06T14:14:24.974Z,36.04
2023-05-06T14:16:55.817Z,36.02
2023-05-06T14:19:24.221Z,36.03
2023-05-06T14:21:53.084Z,36.00
2023-05-06T14:24:21.756Z,36.08
2023-05-06T14:26:50.061Z,36.03
2023-05-06T14:29:18.422Z,35.93
2023-05-06T14:31:46.599Z,36.21
2023-05-06T14:34:15.082Z,36.09
2023-05-06T14:36:44.272Z,36.26
2023-05-06T14:39:15.983Z,35.97
2023-05-06T14:41:44.014Z,35.59
2023-05-06T14:44:12.994Z,35.42
2023-05-06T14:46:42.288Z,35.31
2023-05-06T14:49:11.094Z,35.79
2023-05-06T14:51:39.089Z,36.16
2023-05-06T14:54:07.521Z,36.64
2023-05-06T14:56:36.723Z,36.89
2023-05-06T14:59:04.901Z,37.25
2023-05-06T15:01:34.023Z,37.23
2023-05-06T15:04:03.190Z,36.93
2023-05-06T15:06:32.180Z,38.61
2023-05-06T15:09:01.793Z,41.99
2023-05-06T15:11:30.165Z,44.40
2023-05-06T15:13:58.373Z,46.99
2023-05-06T15:16:26.578Z,48.47
2023-05-06T15:18:56.457Z,49.13
2023-05-06T15:21:25.822Z,48.96
2023-05-06T15:23:57.750Z,49.10
2023-05-06T15:26:26.161Z,48.75
2023-05-06T15:28:54.566Z,48.05
2023-05-06T15:31:23.244Z,47.67
2023-05-06T15:33:52.135Z,46.99
2023-05-06T15:36:21.316Z,48.38
2023-05-06T15:38:52.572Z,50.48
2023-05-06T15:41:21.204Z,51.54
2023-05-06T15:43:49.446Z,52.00
2023-05-06T15:46:20.493Z,52.54
2023-05-06T15:48:52.050Z,53.08
2023-05-06T15:51:31.251Z,53.83
2023-05-06T15:53:59.336Z,54.28
2023-05-06T15:56:35.060Z,54.44
2023-05-06T15:59:12.270Z,54.96
2023-05-06T16:02:24.844Z,55.36
2023-05-06T16:04:33.452Z,56.05
2023-05-06T16:07:02.975Z,56.22
2023-05-06T16:09:31.302Z,56.04
2023-05-06T16:11:59.946Z,56.05
2023-05-06T16:14:28.162Z,56.69
2023-05-06T16:16:56.797Z,56.65
2023-05-06T16:19:24.965Z,57.22
2023-05-06T16:21:53.567Z,57.56
2023-05-06T16:24:22.033Z,58.41
2023-05-06T16:26:50.198Z,58.51
2023-05-06T16:29:21.455Z,58.25
2023-05-06T16:31:50.054Z,57.89
2023-05-06T16:34:18.722Z,57.56
2023-05-06T16:36:48.091Z,57.91
2023-05-06T16:39:17.528Z,57.84
2023-05-06T16:41:46.828Z,58.25
2023-05-06T16:44:16.104Z,58.11
2023-05-06T16:46:45.037Z,58.33
2023-05-06T16:49:13.401Z,58.43
2023-05-06T16:51:41.785Z,58.69
2023-05-06T16:54:10.122Z,59.29
2023-05-06T16:56:50.651Z,59.55
2023-05-06T16:59:22.645Z,59.86
2023-05-06T17:01:51.254Z,59.38
2023-05-06T17:04:25.368Z,59.56
2023-05-06T17:06:55.216Z,59.55
2023-05-06T17:09:23.647Z,59.40
2023-05-06T17:11:52.016Z,59.54
2023-05-06T17:14:20.132Z,59.75
2023-05-06T17:16:52.206Z,59.91
2023-05-06T17:19:20.555Z,60.07
2023-05-06T17:21:48.877Z,60.10
2023-05-06T17:24:18.427Z,60.26
2023-05-06T17:26:47.077Z,60.38
2023-05-06T17:29:15.832Z,60.61
2023-05-06T17:31:44.048Z,60.88
2023-05-06T17:34:13.168Z,60.83
2023-05-06T17:36:41.441Z,61.08
2023-05-06T17:44:43.136Z,61.63
2023-05-06T17:47:11.564Z,61.81
2023-05-06T17:49:39.651Z,61.98
2023-05-06T17:52:08.403Z,62.24
2023-05-06T17:54:38.620Z,62.48
2023-05-06T17:58:21.931Z,62.40
2023-05-06T18:00:50.620Z,62.48
2023-05-06T18:03:19.416Z,62.59
2023-05-06T18:05:47.775Z,62.68
2023-05-06T18:08:16.102Z,62.77
2023-05-06T18:10:46.081Z,62.80
2023-05-06T18:13:14.476Z,63.22
2023-05-06T18:15:43.188Z,63.20
2023-05-06T18:18:11.392Z,63.42
2023-05-06T18:20:40.021Z,63.94
2023-05-06T18:23:10.373Z,63.81
2023-05-06T18:25:39.211Z,63.97
2023-05-06T18:28:07.916Z,64.37
2023-05-06T18:30:36.449Z,64.27
2023-05-06T18:33:05.175Z,64.03
2023-05-06T18:35:33.534Z,64.48
2023-05-06T18:38:01.596Z,64.41
2023-05-06T18:40:30.397Z,64.40
2023-05-06T18:42:58.640Z,64.45
2023-05-06T18:45:27.080Z,64.45
2023-05-06T18:47:55.669Z,64.67
2023-05-06T18:50:24.879Z,64.94
2023-05-06T18:52:59.958Z,64.68
2023-05-06T18:55:28.403Z,65.23
2023-05-06T18:58:01.021Z,65.30
2023-05-06T19:00:29.191Z,65.35
2023-05-06T19:02:57.494Z,65.58
2023-05-06T19:05:26.967Z,65.97
2023-05-06T19:07:55.143Z,66.22
2023-05-06T19:10:24.277Z,66.47
2023-05-06T19:12:52.860Z,66.95
2023-05-06T19:15:21.398Z,67.01
2023-05-06T19:17:49.742Z,67.12
2023-05-06T19:20:18.060Z,67.29
2023-05-06T19:22:47.060Z,66.98
2023-05-06T19:25:17.900Z,67.18
2023-05-06T19:27:46.592Z,67.20
2023-05-06T19:30:15.109Z,67.07
2023-05-06T19:32:44.985Z,66.77
2023-05-06T19:35:13.430Z,66.51
2023-05-06T19:37:41.931Z,66.25
2023-05-06T19:40:10.915Z,66.31
2023-05-06T19:42:39.295Z,66.14
2023-05-06T19:45:09.052Z,66.20
2023-05-06T19:47:40.597Z,66.22
2023-05-06T19:50:10.555Z,66.34
2023-05-06T19:52:39.265Z,66.12
2023-05-06T19:55:09.485Z,66.16
2023-05-06T19:57:38.776Z,66.10
2023-05-06T20:00:12.557Z,66.03
2023-05-06T20:02:41.359Z,65.98
2023-05-06T20:05:10.992Z,65.95
2023-05-06T20:07:39.663Z,66.13
2023-05-06T20:10:34.357Z,65.35
2023-05-06T20:13:02.918Z,64.76
2023-05-06T20:15:32.227Z,64.36
2023-05-06T20:18:00.848Z,64.12
2023-05-06T20:20:34.597Z,63.99
2023-05-06T20:23:04.027Z,64.00
2023-05-06T20:25:34.395Z,64.14
2023-05-06T20:28:04.511Z,64.12
2023-05-06T20:30:33.750Z,64.26
2023-05-06T20:33:02.294Z,64.36
2023-05-06T20:35:31.011Z,64.06
2023-05-06T20:37:59.111Z,63.92
2023-05-06T20:40:28.954Z,63.73
2023-05-06T20:42:57.093Z,63.54
2023-05-06T20:45:26.378Z,63.47
2023-05-06T20:47:54.700Z,63.21
2023-05-06T20:50:22.940Z,63.42
2023-05-06T20:52:53.589Z,63.45
2023-05-06T20:55:25.267Z,63.49
2023-05-06T20:57:54.070Z,63.88
2023-05-06T21:00:23.120Z,63.97
2023-05-06T21:08:02.163Z,63.04
2023-05-06T21:10:30.755Z,62.80
2023-05-06T21:13:01.239Z,60.80
2023-05-06T21:15:29.859Z,59.28
2023-05-06T21:17:58.273Z,59.29
2023-05-06T21:20:26.923Z,58.88
2023-05-06T21:22:55.814Z,58.75
2023-05-06T21:25:23.891Z,58.49
2023-05-06T21:27:52.368Z,58.41
2023-05-06T21:30:25.350Z,58.66
2023-05-06T21:32:53.641Z,59.47
2023-05-06T21:35:23.541Z,59.96
2023-05-06T21:37:53.351Z,60.38
2023-05-06T21:40:21.727Z,60.81
2023-05-06T21:42:52.870Z,60.63
2023-05-06T21:45:21.497Z,60.54
2023-05-06T21:47:51.077Z,60.47
2023-05-06T21:50:22.259Z,60.90
2023-05-06T21:52:51.002Z,61.07
2023-05-06T21:55:22.470Z,61.17
2023-05-06T21:57:50.472Z,61.42
2023-05-06T22:00:18.999Z,61.54
2023-05-06T22:02:47.856Z,60.61
2023-05-06T22:05:16.973Z,59.58
2023-05-06T22:07:48.450Z,58.73
2023-05-06T22:10:19.462Z,57.76
2023-05-06T22:12:47.576Z,56.72
2023-05-06T22:15:16.129Z,55.90
2023-05-06T22:17:44.891Z,55.37
2023-05-06T22:20:15.474Z,54.73
2023-05-06T22:22:44.639Z,56.73
2023-05-06T22:25:13.822Z,59.23
2023-05-06T22:27:42.516Z,59.92
2023-05-06T22:30:33.416Z,60.28
2023-05-06T22:33:01.908Z,60.12
2023-05-06T22:35:30.047Z,59.97
2023-05-06T22:37:58.956Z,59.78
2023-05-06T22:40:28.208Z,59.98
2023-05-06T22:42:56.640Z,59.84
2023-05-06T22:45:25.337Z,59.76
2023-05-06T22:47:53.640Z,59.75
2023-05-06T22:50:22.077Z,59.76
2023-05-06T22:52:50.494Z,60.21
2023-05-06T22:55:18.945Z,60.98
2023-05-06T22:57:52.023Z,61.50
2023-05-06T23:00:21.121Z,62.28
2023-05-06T23:02:49.814Z,62.45
2023-05-06T23:05:17.990Z,62.85
2023-05-06T23:07:46.693Z,62.51
2023-05-06T23:10:15.055Z,62.11
2023-05-06T23:12:43.269Z,61.76
2023-05-06T23:15:12.570Z,61.22
2023-05-06T23:17:42.778Z,61.10
2023-05-06T23:20:13.572Z,61.20
2023-05-06T23:22:42.452Z,61.00
2023-05-06T23:25:12.114Z,60.64
2023-05-06T23:27:40.909Z,60.68
2023-05-06T23:30:14.458Z,60.82
2023-05-06T23:32:42.858Z,60.88
2023-05-06T23:35:11.430Z,60.94
2023-05-06T23:37:40.930Z,61.13
2023-05-06T23:40:16.276Z,61.27
2023-05-06T23:42:45.278Z,61.45
2023-05-06T23:45:13.633Z,61.44
2023-05-06T23:47:42.211Z,61.62
2023-05-06T23:50:12.056Z,61.78
2023-05-06T23:52:41.046Z,62.13
2023-05-06T23:55:12.478Z,62.13
2023-05-06T23:57:41.221Z,62.47
